Terminal Aerodrome Forecast
Issued by NWS

Home | Current Version | Previous Version | Text Only | Print | Product List | Glossary On
Versions: 1 2 3 4 5 6 7 8 9 10 11 12 13 14 15 16 17 18 19 20 21 22 23 24 25 26 27 28 29 30
000
FTUS46 KPDT 260500
TAFDLS
TAF
KDLS 260520Z 2606/2706 08006KT 6SM BR OVC005
     FM261000 09003KT 1/4SM FG OVC002
     FM261700 VRB03KT 2SM BR OVC003
     FM262100 VRB03KT 5SM BR OVC005
     FM270300 VRB03KT P6SM FEW008 SCT250=

USA.gov is the U.S. government's official web portal to all federal, state and local government web resources and services.